Time;durP1;ratioP1;P1;durP2;ratioP2;P2;SDS_P1;SDS_P2;PMS_P1;PMS_P2;Temp;Humidity;BMP_temperature;BMP_pressure;BME280_temperature;BME280_humidity;BME280_pressure;Samples;Min_cycle;Max_cycle;Signal;HPM_P1;HPM_P2
2021/12/14 00:01:22;;;;;;;14.77;11.55;;;8.70;99.90;;;;;;5031316;28;20061;-72
2021/12/14 00:03:53;;;;;;;16.75;11.38;;;8.70;99.90;;;;;;5012824;28;20057;-73
2021/12/14 00:06:20;;;;;;;13.63;11.15;;;8.70;99.90;;;;;;5011001;28;20041;-73
2021/12/14 00:08:53;;;;;;;15.35;12.07;;;8.80;99.90;;;;;;5030357;28;20091;-72
2021/12/14 00:16:37;;;;;;;15.00;11.93;;;8.70;99.90;;;;;;5028053;28;20132;-73
2021/12/14 00:19:03;;;;;;;14.25;12.18;;;8.70;99.90;;;;;;5031383;28;20076;-73
2021/12/14 00:21:30;;;;;;;16.77;12.13;;;8.70;99.90;;;;;;5013973;28;20435;-73
2021/12/14 00:24:06;;;;;;;17.48;12.50;;;8.70;99.90;;;;;;5030675;28;20033;-72
2021/12/14 00:26:34;;;;;;;17.60;12.73;;;8.70;99.90;;;;;;5013276;28;20075;-73
2021/12/14 00:28:59;;;;;;;15.82;13.35;;;8.60;99.90;;;;;;5028626;28;20140;-72
2021/12/14 00:31:26;;;;;;;16.45;13.65;;;8.60;99.90;;;;;;5009826;28;20540;-73
2021/12/14 00:33:56;;;;;;;16.27;13.52;;;8.60;99.90;;;;;;5031197;28;20095;-73
2021/12/14 00:36:22;;;;;;;18.58;14.63;;;8.60;99.90;;;;;;5030058;28;20107;-73
2021/12/14 00:38:54;;;;;;;15.43;13.27;;;8.60;99.90;;;;;;5031804;28;20089;-73
2021/12/14 00:41:27;;;;;;;19.65;13.70;;;8.60;99.90;;;;;;5027583;28;20052;-73
2021/12/14 00:43:53;;;;;;;19.75;13.95;;;8.60;99.90;;;;;;5013559;28;20037;-73
2021/12/14 00:46:19;;;;;;;20.27;14.63;;;8.60;99.90;;;;;;5016833;28;20515;-73
2021/12/14 00:48:47;;;;;;;21.05;15.13;;;8.60;99.90;;;;;;5013885;28;20037;-73
2021/12/14 00:51:13;;;;;;;19.70;15.65;;;8.70;99.90;;;;;;5032534;28;20068;-73
2021/12/14 00:53:40;;;;;;;16.83;14.95;;;8.60;99.90;;;;;;5034083;28;20037;-73
2021/12/14 00:56:10;;;;;;;21.55;15.48;;;8.60;99.90;;;;;;5034659;28;20126;-73
2021/12/14 00:58:36;;;;;;;17.77;14.90;;;8.60;99.90;;;;;;5034496;28;20045;-73
2021/12/14 01:01:11;;;;;;;21.38;15.63;;;8.70;99.90;;;;;;5033544;28;20038;-73
2021/12/14 01:03:42;;;;;;;19.55;16.35;;;8.70;99.90;;;;;;5030154;28;20080;-72
2021/12/14 01:06:11;;;;;;;21.25;15.73;;;8.70;99.90;;;;;;5029995;28;20407;-73
2021/12/14 01:08:40;;;;;;;20.55;15.93;;;8.60;99.90;;;;;;5034299;28;20042;-73
2021/12/14 01:11:14;;;;;;;19.70;16.20;;;8.70;99.90;;;;;;5011223;28;20038;-72
2021/12/14 01:13:51;;;;;;;21.85;16.50;;;8.70;99.90;;;;;;5018118;28;20121;-73
2021/12/14 01:16:32;;;;;;;20.83;16.73;;;8.70;99.90;;;;;;5029877;28;20053;-73
2021/12/14 01:19:13;;;;;;;22.50;16.45;;;8.70;99.90;;;;;;5032450;28;20029;-72
2021/12/14 01:22:38;;;;;;;19.73;16.42;;;8.60;99.90;;;;;;5031507;28;20050;-73
2021/12/14 01:27:03;;;;;;;22.38;16.95;;;8.60;99.90;;;;;;5033421;28;19924;-72
2021/12/14 01:29:29;;;;;;;21.42;16.52;;;8.50;99.90;;;;;;5033342;28;20045;-72
2021/12/14 01:32:00;;;;;;;22.23;17.50;;;8.60;99.90;;;;;;5014570;28;20047;-73
2021/12/14 01:34:27;;;;;;;23.63;16.77;;;8.60;99.90;;;;;;5013826;28;20033;-73
2021/12/14 01:36:57;;;;;;;21.30;17.10;;;8.60;99.90;;;;;;5033639;28;20041;-73
2021/12/14 01:42:07;;;;;;;22.23;17.52;;;8.70;99.90;;;;;;5033868;28;20042;-73
2021/12/14 01:44:38;;;;;;;23.17;17.30;;;8.70;99.90;;;;;;5012563;28;20129;-73
2021/12/14 01:47:09;;;;;;;21.55;17.88;;;8.60;99.90;;;;;;5028768;28;20515;-73
2021/12/14 01:49:35;;;;;;;21.63;18.20;;;8.70;99.90;;;;;;5010263;28;20033;-73
2021/12/14 01:52:06;;;;;;;20.67;17.35;;;8.70;99.90;;;;;;5027200;28;20041;-72
2021/12/14 01:54:36;;;;;;;22.45;16.98;;;8.70;99.90;;;;;;5014809;28;20044;-72
2021/12/14 01:57:08;;;;;;;20.35;17.02;;;8.60;99.90;;;;;;5010894;28;20040;-72
2021/12/14 01:59:38;;;;;;;21.65;17.08;;;8.70;99.90;;;;;;5028782;28;20083;-73
2021/12/14 02:04:44;;;;;;;20.92;16.92;;;8.70;99.90;;;;;;5033241;28;20041;-72
2021/12/14 02:07:12;;;;;;;22.45;17.60;;;8.60;99.90;;;;;;5034128;28;20109;-73
2021/12/14 02:09:39;;;;;;;21.85;17.95;;;8.60;99.90;;;;;;5017074;28;20030;-73
2021/12/14 02:12:14;;;;;;;24.00;17.83;;;8.60;99.90;;;;;;5030997;28;20029;-72
2021/12/14 02:14:40;;;;;;;22.55;18.75;;;8.60;99.90;;;;;;4998518;28;20041;-72
2021/12/14 02:17:11;;;;;;;24.45;18.23;;;8.60;99.90;;;;;;5032102;28;20037;-73
2021/12/14 02:19:37;;;;;;;22.48;18.35;;;8.60;99.90;;;;;;5028562;28;20041;-73
2021/12/14 02:22:05;;;;;;;24.27;19.05;;;8.60;99.90;;;;;;5016184;28;20050;-73
2021/12/14 02:24:31;;;;;;;23.80;18.20;;;8.60;99.90;;;;;;5031669;28;20046;-73
2021/12/14 02:26:59;;;;;;;26.83;19.60;;;8.60;99.90;;;;;;5010101;28;20041;-72
2021/12/14 02:29:46;;;;;;;26.73;18.83;;;8.60;99.90;;;;;;5030737;28;20037;-72
2021/12/14 02:32:18;;;;;;;26.83;19.25;;;8.60;99.90;;;;;;5031621;28;20124;-72
2021/12/14 02:34:51;;;;;;;27.35;20.02;;;8.60;99.90;;;;;;5013635;28;20052;-73
2021/12/14 02:37:22;;;;;;;;;;;8.60;99.90;;;;;;5035006;28;20037;-72
2021/12/14 02:40:01;;;;;;;27.45;19.77;;;8.60;99.90;;;;;;5000595;28;19932;-72
2021/12/14 02:42:29;;;;;;;26.73;20.38;;;8.60;99.90;;;;;;5029679;28;20042;-73
2021/12/14 02:44:57;;;;;;;27.75;20.77;;;8.60;99.90;;;;;;5027954;28;20030;-72
2021/12/14 02:47:24;;;;;;;29.23;21.80;;;8.60;99.90;;;;;;5031500;28;20033;-72
2021/12/14 02:49:49;;;;;;;30.33;20.48;;;8.60;99.90;;;;;;5005857;28;20045;-73
2021/12/14 02:52:31;;;;;;;27.60;20.83;;;8.60;99.90;;;;;;5014854;28;20041;-72
2021/12/14 02:55:06;;;;;;;25.35;19.92;;;8.60;99.90;;;;;;5013435;28;20048;-72
2021/12/14 02:57:36;;;;;;;27.85;21.33;;;8.60;99.90;;;;;;5007789;28;20080;-72
2021/12/14 03:00:07;;;;;;;32.38;21.80;;;8.50;99.90;;;;;;5009908;28;20037;-72
2021/12/14 03:02:34;;;;;;;29.88;21.80;;;8.60;99.90;;;;;;5012197;28;20104;-72
2021/12/14 03:05:13;;;;;;;28.48;21.35;;;8.60;99.90;;;;;;5030249;28;20129;-72
2021/12/14 03:07:45;;;;;;;31.70;22.35;;;8.60;99.90;;;;;;5013627;28;20049;-72
2021/12/14 03:12:47;;;;;;;29.27;22.38;;;8.60;99.90;;;;;;5010907;28;20056;-72
2021/12/14 03:15:35;;;;;;;30.00;22.02;;;8.60;99.90;;;;;;5007858;28;20049;-72
2021/12/14 03:18:10;;;;;;;32.42;22.10;;;8.60;99.90;;;;;;4997159;28;20052;-72
2021/12/14 03:20:51;;;;;;;34.08;23.15;;;8.50;99.90;;;;;;5000709;28;20531;-72
2021/12/14 03:23:23;;;;;;;31.17;23.02;;;8.50;99.90;;;;;;5008861;28;20068;-72
2021/12/14 03:25:52;;;;;;;30.70;22.85;;;8.50;99.90;;;;;;5026479;28;20043;-72
2021/12/14 03:28:20;;;;;;;32.03;23.05;;;8.50;99.90;;;;;;5011402;28;20510;-72
2021/12/14 03:30:46;;;;;;;31.88;22.88;;;8.50;99.90;;;;;;5013022;28;20087;-72
2021/12/14 03:33:18;;;;;;;31.77;23.38;;;8.50;99.90;;;;;;5012004;28;20034;-72
2021/12/14 03:35:59;;;;;;;30.27;23.35;;;8.50;99.90;;;;;;5034679;28;20095;-72
2021/12/14 03:38:30;;;;;;;32.85;24.13;;;8.40;99.90;;;;;;5008970;28;20064;-72
2021/12/14 03:41:03;;;;;;;32.00;24.40;;;8.50;99.90;;;;;;5008995;28;20052;-72
2021/12/14 03:43:30;;;;;;;33.13;23.70;;;8.50;99.90;;;;;;4998422;28;20095;-72
2021/12/14 03:45:57;;;;;;;32.83;24.17;;;8.50;99.90;;;;;;5029013;28;20049;-72
2021/12/14 03:48:27;;;;;;;33.78;24.52;;;8.50;99.90;;;;;;5011320;28;20120;-72
2021/12/14 03:50:54;;;;;;;33.88;25.08;;;8.50;99.90;;;;;;5004938;28;20045;-72
2021/12/14 03:53:21;;;;;;;34.85;25.08;;;8.50;99.90;;;;;;5007576;28;20064;-72
2021/12/14 03:55:56;;;;;;;35.40;25.50;;;8.50;99.90;;;;;;5028682;28;20056;-72
2021/12/14 03:58:25;;;;;;;34.28;25.77;;;8.50;99.90;;;;;;5009359;28;20092;-72
2021/12/14 04:00:59;;;;;;;40.65;27.02;;;8.50;99.90;;;;;;5012951;28;20034;-72
2021/12/14 04:03:27;;;;;;;35.55;25.88;;;8.40;99.90;;;;;;5009512;28;20053;-73
2021/12/14 04:05:54;;;;;;;35.47;26.50;;;8.40;99.90;;;;;;5017397;28;20033;-72
2021/12/14 04:08:21;;;;;;;38.70;26.67;;;8.40;99.90;;;;;;5026282;28;20040;-72
2021/12/14 04:10:49;;;;;;;37.38;26.25;;;8.40;99.90;;;;;;5009113;28;20480;-72
2021/12/14 04:13:20;;;;;;;39.85;27.90;;;8.40;99.90;;;;;;5005774;28;20247;-72
2021/12/14 04:15:46;;;;;;;36.15;26.17;;;8.40;99.90;;;;;;5012976;28;20052;-72
2021/12/14 04:18:12;;;;;;;38.40;26.77;;;8.40;99.90;;;;;;5012702;28;20067;-73
2021/12/14 04:20:42;;;;;;;39.67;27.90;;;8.40;99.90;;;;;;4999972;28;20476;-72
2021/12/14 04:23:13;;;;;;;37.17;26.52;;;8.40;99.90;;;;;;5025451;28;20156;-72
2021/12/14 04:25:40;;;;;;;37.55;27.92;;;8.40;99.90;;;;;;5022086;28;20029;-72
2021/12/14 04:28:10;;;;;;;38.08;27.85;;;8.40;99.90;;;;;;5005255;28;20030;-72
2021/12/14 04:30:36;;;;;;;40.72;28.23;;;8.40;99.90;;;;;;5006079;28;20046;-72
2021/12/14 04:33:07;;;;;;;35.55;27.25;;;8.40;99.90;;;;;;5014327;28;20057;-73
2021/12/14 04:35:36;;;;;;;39.92;29.25;;;8.40;99.90;;;;;;5006707;28;20049;-72
2021/12/14 04:38:09;;;;;;;38.10;28.00;;;8.40;99.90;;;;;;5022422;28;20034;-72
2021/12/14 04:54:22;;;;;;;41.88;29.00;;;8.30;99.90;;;;;;5011218;28;20462;-72
2021/12/14 04:56:49;;;;;;;44.50;29.85;;;8.40;99.90;;;;;;5008083;28;20393;-72
2021/12/14 04:59:23;;;;;;;42.47;29.00;;;8.30;99.90;;;;;;5013844;28;20399;-72
2021/12/14 05:01:52;;;;;;;42.40;29.92;;;8.30;99.90;;;;;;5024376;28;20546;-72
2021/12/14 05:04:21;;;;;;;38.83;28.63;;;8.40;99.90;;;;;;5009002;28;20033;-72
2021/12/14 05:06:55;;;;;;;41.97;30.20;;;8.30;99.90;;;;;;5027867;28;20407;-72
2021/12/14 05:09:28;;;;;;;40.88;31.05;;;8.30;99.90;;;;;;5009249;28;20388;-72
2021/12/14 05:12:01;;;;;;;41.65;30.73;;;8.30;99.90;;;;;;5008467;28;20827;-72
2021/12/14 05:14:29;;;;;;;40.67;31.27;;;8.40;99.90;;;;;;5018053;28;20535;-72
2021/12/14 05:16:58;;;;;;;38.50;30.00;;;8.40;99.90;;;;;;5015090;28;20368;-72
2021/12/14 05:19:27;;;;;;;42.17;30.75;;;8.40;99.90;;;;;;5008435;28;20064;-72
2021/12/14 05:21:58;;;;;;;42.20;30.75;;;8.40;99.90;;;;;;5004725;28;20454;-72
2021/12/14 05:24:25;;;;;;;43.08;33.15;;;8.40;99.90;;;;;;5013912;28;20116;-72
2021/12/14 05:27:00;;;;;;;41.35;31.30;;;8.40;99.90;;;;;;5033441;28;20100;-72
2021/12/14 05:29:28;;;;;;;43.67;30.30;;;8.40;99.90;;;;;;5009764;28;20388;-72
2021/12/14 05:31:54;;;;;;;43.45;30.50;;;8.40;99.90;;;;;;5023273;28;20037;-72
2021/12/14 05:34:22;;;;;;;44.35;32.25;;;8.40;99.90;;;;;;5015564;28;20037;-72
2021/12/14 05:36:49;;;;;;;44.47;32.40;;;8.40;99.90;;;;;;5012183;28;20603;-72
2021/12/14 05:44:28;;;;;;;45.22;31.42;;;8.50;99.90;;;;;;5013599;28;20089;-72
2021/12/14 05:46:59;;;;;;;44.50;33.30;;;8.40;99.90;;;;;;5012020;28;20056;-72
2021/12/14 05:49:28;;;;;;;44.50;32.25;;;8.40;99.90;;;;;;5010291;28;20499;-72
2021/12/14 05:51:57;;;;;;;46.60;33.67;;;8.40;99.90;;;;;;5033908;28;20029;-72
2021/12/14 05:54:30;;;;;;;46.20;33.22;;;8.40;99.90;;;;;;5002328;28;20540;-72
2021/12/14 05:56:58;;;;;;;44.65;33.97;;;8.40;99.90;;;;;;5013806;28;20049;-73
2021/12/14 05:59:28;;;;;;;43.67;33.40;;;8.40;99.90;;;;;;5015579;28;20705;-72
2021/12/14 06:01:55;;;;;;;47.47;34.15;;;8.40;99.90;;;;;;5025729;28;20033;-72
2021/12/14 06:04:25;;;;;;;47.92;34.15;;;8.40;99.90;;;;;;5012503;28;20509;-72
2021/12/14 06:06:53;;;;;;;48.55;36.13;;;8.40;99.90;;;;;;5021620;28;20504;-72
2021/12/14 06:09:28;;;;;;;55.22;37.63;;;8.40;99.90;;;;;;5020186;28;20373;-72
2021/12/14 06:12:18;;;;;;;55.35;37.65;;;8.40;99.90;;;;;;5012678;28;20556;-72
2021/12/14 06:14:52;;;;;;;60.28;38.33;;;8.40;99.90;;;;;;5009875;28;20392;-72
2021/12/14 06:17:26;;;;;;;61.10;38.78;;;8.40;99.90;;;;;;5016352;28;20396;-72
2021/12/14 06:20:14;;;;;;;57.80;38.08;;;8.40;99.90;;;;;;5012162;28;20466;-72
2021/12/14 06:22:41;;;;;;;58.88;37.95;;;8.30;99.90;;;;;;5010047;28;20520;-72
2021/12/14 06:25:10;;;;;;;57.33;38.75;;;8.40;99.90;;;;;;5030081;28;20407;-72
2021/12/14 06:27:37;;;;;;;61.17;40.97;;;8.30;99.90;;;;;;5011771;28;20399;-72
2021/12/14 06:30:04;;;;;;;64.07;41.67;;;8.30;99.90;;;;;;5010241;28;20458;-72
2021/12/14 06:32:40;;;;;;;64.90;41.92;;;8.30;99.90;;;;;;5008971;28;20045;-72
2021/12/14 06:35:19;;;;;;;60.67;40.47;;;8.30;99.90;;;;;;5004486;28;20075;-72
2021/12/14 06:38:26;;;;;;;62.72;42.67;;;8.30;99.90;;;;;;5007007;28;20045;-73
2021/12/14 06:41:03;;;;;;;62.70;41.55;;;8.30;99.90;;;;;;4968589;28;20500;-72
2021/12/14 06:43:47;;;;;;;63.55;40.80;;;8.30;99.90;;;;;;5006227;28;20037;-73
2021/12/14 06:46:24;;;;;;;65.93;43.17;;;8.30;99.90;;;;;;5007796;28;20038;-72
2021/12/14 06:48:55;;;;;;;67.22;42.58;;;8.30;99.90;;;;;;5004957;28;20068;-73
2021/12/14 06:51:47;;;;;;;67.13;42.67;;;8.30;99.90;;;;;;4987346;28;20147;-73
2021/12/14 06:54:17;;;;;;;72.90;44.65;;;8.30;99.90;;;;;;5005506;28;20045;-73
2021/12/14 06:56:47;;;;;;;67.90;45.78;;;8.30;99.90;;;;;;5020813;28;20045;-72
2021/12/14 06:59:16;;;;;;;68.20;43.60;;;8.30;99.90;;;;;;5013019;28;20052;-73
2021/12/14 07:01:54;;;;;;;63.85;41.72;;;8.30;99.90;;;;;;5008982;28;20400;-73
2021/12/14 07:04:24;;;;;;;69.63;44.17;;;8.30;99.90;;;;;;5009196;28;20511;-74
2021/12/14 07:06:56;;;;;;;65.40;44.03;;;8.30;99.90;;;;;;5004964;28;20516;-73
2021/12/14 07:09:33;;;;;;;67.93;42.78;;;8.30;99.90;;;;;;5008190;28;20068;-73
2021/12/14 07:12:07;;;;;;;67.40;42.55;;;8.30;99.90;;;;;;5009444;28;20068;-73
2021/12/14 07:14:36;;;;;;;69.38;45.97;;;8.30;99.90;;;;;;5011039;28;20957;-72
2021/12/14 07:17:15;;;;;;;68.75;46.45;;;8.40;99.90;;;;;;5013506;28;20041;-72
2021/12/14 07:19:49;;;;;;;69.35;43.60;;;8.30;99.90;;;;;;5012492;28;20388;-72
2021/12/14 07:22:40;;;;;;;62.80;41.97;;;8.40;99.90;;;;;;5008909;28;20503;-72
2021/12/14 07:25:13;;;;;;;69.10;46.03;;;8.40;99.90;;;;;;5025280;28;20046;-73
2021/12/14 07:27:41;;;;;;;65.75;44.47;;;8.40;99.90;;;;;;5012529;28;20044;-72
2021/12/14 07:30:13;;;;;;;69.22;44.55;;;8.40;99.90;;;;;;5005172;28;20936;-72
2021/12/14 07:32:51;;;;;;;66.03;44.33;;;8.40;99.90;;;;;;4982208;28;20073;-73
2021/12/14 07:35:32;;;;;;;68.00;45.03;;;8.40;99.90;;;;;;5005327;28;20053;-73
2021/12/14 07:38:15;;;;;;;65.32;44.47;;;8.40;99.90;;;;;;5008927;28;20391;-73
2021/12/14 07:40:45;;;;;;;68.32;46.38;;;8.40;99.90;;;;;;5007823;28;20372;-73
2021/12/14 07:43:18;;;;;;;69.47;45.72;;;8.40;99.90;;;;;;5013710;28;20049;-73
2021/12/14 07:45:51;;;;;;;69.20;44.55;;;8.40;99.90;;;;;;5005632;28;20055;-73
2021/12/14 07:48:24;;;;;;;68.93;45.13;;;8.40;99.90;;;;;;5007862;28;20285;-73
2021/12/14 07:50:54;;;;;;;69.00;45.83;;;8.40;99.90;;;;;;5004254;28;20053;-73
2021/12/14 07:53:31;;;;;;;66.63;45.63;;;8.40;99.90;;;;;;5003107;28;20049;-73
2021/12/14 07:55:57;;;;;;;70.32;45.95;;;8.40;99.90;;;;;;5008834;28;20350;-74
2021/12/14 07:58:49;;;;;;;79.03;46.80;;;8.40;99.90;;;;;;4976997;28;20045;-73
2021/12/14 08:01:15;;;;;;;75.90;45.53;;;8.40;99.90;;;;;;5004479;28;20053;-73
2021/12/14 08:03:45;;;;;;;79.10;49.30;;;8.40;99.90;;;;;;5021210;28;20288;-74
2021/12/14 08:06:15;;;;;;;78.80;46.92;;;8.40;99.90;;;;;;5007788;28;20511;-73
2021/12/14 08:14:09;;;;;;;88.50;50.75;;;8.40;99.90;;;;;;5006164;28;20050;-73
2021/12/14 08:16:46;;;;;;;79.10;45.67;;;8.40;99.90;;;;;;5003419;28;20111;-72
2021/12/14 08:19:24;;;;;;;87.97;50.50;;;8.40;99.90;;;;;;5006398;28;20049;-73
2021/12/14 08:21:50;;;;;;;88.60;51.22;;;8.30;99.90;;;;;;5006202;28;20133;-73
2021/12/14 08:24:17;;;;;;;85.78;50.05;;;8.40;99.90;;;;;;4988127;28;20531;-73
2021/12/14 08:26:51;;;;;;;84.53;48.83;;;8.40;99.90;;;;;;5002113;28;20100;-73
2021/12/14 08:29:23;;;;;;;84.47;49.55;;;8.40;99.90;;;;;;4986346;28;20072;-73
2021/12/14 08:32:06;;;;;;;78.20;47.83;;;8.40;99.90;;;;;;4974542;28;20099;-73
2021/12/14 08:34:37;;;;;;;81.05;47.35;;;8.40;99.90;;;;;;4990097;28;20041;-73
2021/12/14 08:37:12;;;;;;;79.45;48.53;;;8.40;99.90;;;;;;5002671;28;20068;-73
2021/12/14 08:39:55;;;;;;;81.75;48.50;;;8.40;99.90;;;;;;5007317;28;20049;-73
2021/12/14 08:42:31;;;;;;;78.90;47.38;;;8.40;99.90;;;;;;5003334;28;20041;-73
2021/12/14 08:44:59;;;;;;;76.45;46.92;;;8.40;99.90;;;;;;5005963;28;20061;-73
2021/12/14 08:47:36;;;;;;;73.53;46.60;;;8.40;99.90;;;;;;5010492;28;20120;-71
2021/12/14 08:50:08;;;;;;;71.75;46.17;;;8.40;99.90;;;;;;5005220;28;20041;-73
2021/12/14 08:52:34;;;;;;;;;;;8.50;99.90;;;;;;5006493;28;20034;-73
2021/12/14 08:55:04;;;;;;;71.32;46.70;;;8.50;99.90;;;;;;5012724;28;20640;-73
2021/12/14 08:57:31;;;;;;;70.00;44.60;;;8.50;99.90;;;;;;4965200;28;20043;-72
2021/12/14 09:00:02;;;;;;;71.25;45.83;;;8.50;99.90;;;;;;5006445;28;20042;-73
2021/12/14 09:02:32;;;;;;;66.93;44.10;;;8.50;99.90;;;;;;5021833;28;20121;-73
2021/12/14 09:05:16;;;;;;;66.68;44.83;;;8.50;99.90;;;;;;4988531;28;20523;-73
2021/12/14 09:07:44;;;;;;;72.47;45.65;;;8.50;99.90;;;;;;4995766;28;20132;-73
2021/12/14 09:10:15;;;;;;;67.95;44.47;;;8.60;99.90;;;;;;5009329;28;20065;-72
2021/12/14 09:12:43;;;;;;;69.38;44.70;;;8.60;99.90;;;;;;5002047;28;20501;-73
2021/12/14 09:15:20;;;;;;;63.65;43.22;;;8.60;99.90;;;;;;5008544;28;20041;-73
2021/12/14 09:17:47;;;;;;;65.57;42.28;;;8.60;99.90;;;;;;4999555;28;20108;-73
2021/12/14 09:20:20;;;;;;;64.22;42.97;;;8.60;99.90;;;;;;5005687;28;20042;-73
2021/12/14 09:22:47;;;;;;;;;;;8.60;99.90;;;;;;5012031;28;20383;-72
2021/12/14 09:25:19;;;;;;;62.20;42.40;;;8.70;99.90;;;;;;4989905;28;20315;-72
2021/12/14 09:27:46;;;;;;;64.47;41.13;;;8.70;99.90;;;;;;4956909;28;20107;-73
2021/12/14 09:30:16;;;;;;;64.50;42.47;;;8.70;99.90;;;;;;5018828;28;20037;-73
2021/12/14 09:32:43;;;;;;;60.15;41.85;;;8.70;99.90;;;;;;5010209;28;20041;-73
2021/12/14 09:35:16;;;;;;;61.47;43.15;;;8.70;99.90;;;;;;5010550;28;20152;-73
2021/12/14 09:37:42;;;;;;;63.10;42.10;;;8.70;99.90;;;;;;5008748;28;20041;-73
2021/12/14 09:40:14;;;;;;;66.63;42.42;;;8.80;99.90;;;;;;5002256;28;20085;-73
2021/12/14 09:42:40;;;;;;;61.08;42.58;;;8.80;99.90;;;;;;5005842;28;20088;-72
2021/12/14 09:45:12;;;;;;;57.33;39.45;;;8.80;99.90;;;;;;5029024;28;20045;-73
2021/12/14 09:47:39;;;;;;;60.75;41.13;;;8.80;99.90;;;;;;4999868;28;20506;-73
2021/12/14 09:50:12;;;;;;;63.13;40.50;;;8.80;99.90;;;;;;4997608;28;20045;-72
2021/12/14 09:52:40;;;;;;;68.68;42.95;;;8.80;99.90;;;;;;5007273;28;20033;-73
2021/12/14 09:55:12;;;;;;;66.20;43.30;;;8.80;99.90;;;;;;5015161;28;20045;-73
2021/12/14 09:57:44;;;;;;;64.97;42.20;;;8.80;99.90;;;;;;5009495;28;20492;-73
2021/12/14 10:00:19;;;;;;;67.30;41.20;;;8.70;99.90;;;;;;5009883;28;20400;-73
2021/12/14 10:02:47;;;;;;;68.05;43.80;;;8.80;99.90;;;;;;5009582;28;20056;-72
2021/12/14 10:05:45;;;;;;;65.38;41.20;;;8.80;99.90;;;;;;5012168;28;20033;-73
2021/12/14 10:08:18;;;;;;;63.83;39.60;;;8.80;99.90;;;;;;5001900;28;20061;-73
2021/12/14 10:10:59;;;;;;;65.32;41.22;;;8.80;99.90;;;;;;5008819;28;20052;-73
2021/12/14 10:13:26;;;;;;;66.00;41.67;;;8.80;99.90;;;;;;5003162;28;20128;-74
2021/12/14 10:15:57;;;;;;;62.35;40.05;;;8.80;99.90;;;;;;4997219;28;20616;-73
2021/12/14 10:18:28;;;;;;;61.97;39.60;;;8.80;99.90;;;;;;5001362;28;20422;-73
2021/12/14 10:21:05;;;;;;;64.15;39.80;;;8.90;99.90;;;;;;5018229;28;20041;-72
2021/12/14 10:23:32;;;;;;;60.90;39.53;;;8.90;99.90;;;;;;5026946;28;20046;-72
2021/12/14 10:25:59;;;;;;;60.65;38.05;;;8.80;99.90;;;;;;5013627;28;20129;-73
2021/12/14 10:28:28;;;;;;;58.15;38.00;;;8.90;99.90;;;;;;5028314;28;20083;-73
2021/12/14 10:31:02;;;;;;;57.58;36.60;;;8.90;99.90;;;;;;4995123;28;20037;-73
2021/12/14 10:33:30;;;;;;;58.88;38.35;;;8.90;99.90;;;;;;5012526;28;20091;-73
2021/12/14 10:36:02;;;;;;;61.30;37.95;;;8.90;99.90;;;;;;5005566;28;20061;-73
2021/12/14 10:38:38;;;;;;;57.42;37.22;;;8.90;99.90;;;;;;5034722;28;20041;-73
2021/12/14 10:44:01;;;;;;;65.32;40.17;;;8.90;99.90;;;;;;5014853;28;20045;-73
2021/12/14 10:46:50;;;;;;;66.43;40.65;;;8.80;99.90;;;;;;5010673;28;20038;-73
2021/12/14 10:49:18;;;;;;;71.07;40.33;;;8.80;99.90;;;;;;5025244;28;20041;-73
2021/12/14 10:51:49;;;;;;;71.55;41.60;;;8.90;99.90;;;;;;5011692;28;20127;-73
2021/12/14 10:54:17;;;;;;;77.18;42.65;;;8.80;99.90;;;;;;4977672;28;20453;-73
2021/12/14 10:56:50;;;;;;;77.82;43.15;;;8.80;99.90;;;;;;5025063;28;20034;-73
2021/12/14 10:59:20;;;;;;;81.22;41.97;;;8.80;99.90;;;;;;5006384;28;20051;-73
2021/12/14 11:01:50;;;;;;;80.07;43.72;;;8.80;99.90;;;;;;5003355;28;20050;-73
2021/12/14 11:04:33;;;;;;;82.60;43.90;;;8.80;99.90;;;;;;4990053;28;20122;-72
2021/12/14 11:07:01;;;;;;;;;;;8.80;99.90;;;;;;5002811;28;20061;-72
2021/12/14 11:09:42;;;;;;;78.03;41.08;;;8.80;99.90;;;;;;5006280;28;19921;-73
2021/12/14 11:12:19;;;;;;;88.22;44.78;;;8.80;99.90;;;;;;4998937;28;20037;-73
2021/12/14 11:14:48;;;;;;;89.20;45.38;;;8.80;99.90;;;;;;5001883;28;20526;-72
2021/12/14 11:20:31;;;;;;;92.82;47.17;;;8.80;99.90;;;;;;5003550;28;20045;-73
2021/12/14 11:23:09;;;;;;;85.53;45.78;;;8.90;99.90;;;;;;5008035;28;20148;-72
2021/12/14 11:26:15;;;;;;;94.88;46.35;;;8.90;99.90;;;;;;5016171;28;20048;-73
2021/12/14 11:28:54;;;;;;;97.90;45.72;;;8.90;99.90;;;;;;4991184;28;20523;-73
2021/12/14 11:31:30;;;;;;;95.75;48.03;;;8.90;99.90;;;;;;5031441;28;20041;-72
2021/12/14 11:33:58;;;;;;;93.60;45.83;;;8.80;99.90;;;;;;4981578;28;20041;-72
2021/12/14 11:36:36;;;;;;;89.88;46.78;;;8.90;99.90;;;;;;4973160;28;20043;-72
2021/12/14 11:39:23;;;;;;;90.65;45.85;;;8.90;99.90;;;;;;4995604;28;20491;-72
2021/12/14 11:41:59;;;;;;;93.90;44.20;;;8.90;99.90;;;;;;5006259;28;20403;-73
2021/12/14 11:44:27;;;;;;;80.00;42.25;;;8.90;99.90;;;;;;4999480;28;20492;-73
2021/12/14 11:46:58;;;;;;;84.30;41.35;;;8.90;99.90;;;;;;4996521;28;20073;-73
2021/12/14 11:49:47;;;;;;;82.17;41.17;;;8.90;99.90;;;;;;5001253;28;20370;-73
2021/12/14 11:52:30;;;;;;;74.07;40.03;;;8.90;99.90;;;;;;5007839;28;20045;-72
2021/12/14 11:54:56;;;;;;;75.53;39.20;;;8.90;99.90;;;;;;5007336;28;20049;-72
2021/12/14 11:57:30;;;;;;;75.32;39.50;;;8.90;99.90;;;;;;5020227;28;20041;-72
2021/12/14 12:00:05;;;;;;;71.43;36.28;;;8.90;99.90;;;;;;5011085;28;20424;-73
2021/12/14 12:02:30;;;;;;;67.85;34.75;;;8.90;99.90;;;;;;5002451;28;20045;-73
2021/12/14 12:04:57;;;;;;;68.90;35.47;;;9.00;99.90;;;;;;5004726;28;20030;-73
2021/12/14 12:10:09;;;;;;;68.82;35.55;;;8.90;99.90;;;;;;5001100;28;20033;-72
2021/12/14 12:12:39;;;;;;;64.53;35.22;;;9.00;99.90;;;;;;5022412;28;20049;-71
2021/12/14 12:15:36;;;;;;;64.18;34.83;;;8.90;99.90;;;;;;4988288;28;20060;-71
2021/12/14 12:18:02;;;;;;;63.00;35.30;;;8.90;99.90;;;;;;5002996;28;20044;-72
2021/12/14 12:20:42;;;;;;;66.43;35.17;;;8.90;99.90;;;;;;5006012;28;20041;-71
2021/12/14 12:23:12;;;;;;;72.82;37.17;;;8.90;99.90;;;;;;4975988;28;20111;-71
2021/12/14 12:25:48;;;;;;;74.85;36.58;;;8.90;99.90;;;;;;5008195;28;20504;-72
2021/12/14 12:28:22;;;;;;;70.20;37.42;;;8.90;99.90;;;;;;4993408;28;20551;-72
2021/12/14 12:31:11;;;;;;;67.95;35.90;;;8.90;99.90;;;;;;5024398;28;20049;-72
2021/12/14 12:33:36;;;;;;;66.70;35.20;;;8.90;99.90;;;;;;5005648;28;20064;-72
2021/12/14 12:36:11;;;;;;;72.63;36.70;;;8.90;99.90;;;;;;5020089;28;20038;-72
2021/12/14 12:38:40;;;;;;;66.85;36.28;;;8.90;99.90;;;;;;5001738;28;20049;-73
2021/12/14 12:41:44;;;;;;;69.38;35.90;;;8.90;99.90;;;;;;5014626;28;20519;-73
2021/12/14 12:44:16;;;;;;;67.55;35.80;;;8.90;99.90;;;;;;4986675;28;20049;-73
2021/12/14 12:46:49;;;;;;;60.13;34.83;;;9.00;99.90;;;;;;5009087;28;20068;-73
2021/12/14 12:49:20;;;;;;;61.35;34.95;;;9.00;99.90;;;;;;5013059;28;20693;-73
2021/12/14 12:51:52;;;;;;;63.78;34.90;;;9.00;99.90;;;;;;5013451;28;20054;-73
2021/12/14 12:54:20;;;;;;;65.60;34.10;;;9.00;99.90;;;;;;5012361;28;20499;-73
2021/12/14 12:57:11;;;;;;;66.88;35.60;;;9.00;99.90;;;;;;5006457;28;20502;-73
2021/12/14 12:59:36;;;;;;;63.40;34.20;;;9.00;99.90;;;;;;5005547;28;20451;-72
2021/12/14 13:02:39;;;;;;;70.15;35.78;;;9.10;99.90;;;;;;5006014;28;20037;-73
2021/12/14 13:05:18;;;;;;;69.45;36.72;;;9.10;99.90;;;;;;4979869;28;20480;-73
2021/12/14 13:07:50;;;;;;;70.53;36.53;;;9.10;99.90;;;;;;5008595;28;20037;-73
2021/12/14 13:10:29;;;;;;;75.65;37.70;;;9.10;99.90;;;;;;5000458;28;20042;-73
2021/12/14 13:13:04;;;;;;;72.55;37.50;;;9.10;99.90;;;;;;5006855;28;20511;-73
2021/12/14 13:15:51;;;;;;;72.68;37.60;;;9.10;99.90;;;;;;4994617;28;20519;-73
2021/12/14 13:18:37;;;;;;;74.50;36.83;;;9.10;99.90;;;;;;5011833;28;20061;-73
2021/12/14 13:21:24;;;;;;;72.22;38.08;;;9.10;99.90;;;;;;5000810;28;20106;-73
2021/12/14 13:23:52;;;;;;;69.57;37.25;;;9.10;99.90;;;;;;5018278;28;20057;-73
2021/12/14 13:26:22;;;;;;;76.72;38.10;;;9.10;99.90;;;;;;5005290;28;20392;-73
2021/12/14 13:28:50;;;;;;;75.32;38.28;;;9.10;99.90;;;;;;5008131;28;20381;-73
2021/12/14 13:31:29;;;;;;;77.82;38.00;;;9.10;99.90;;;;;;4990409;28;20054;-73
2021/12/14 13:33:55;;;;;;;78.25;38.38;;;9.20;99.90;;;;;;5013066;28;20048;-73
2021/12/14 13:36:20;;;;;;;79.53;41.15;;;9.20;99.90;;;;;;4999370;28;20654;-73
2021/12/14 13:38:46;;;;;;;79.50;39.92;;;9.20;99.90;;;;;;5010704;28;20140;-73
2021/12/14 13:41:39;;;;;;;83.97;40.17;;;9.20;99.90;;;;;;5011906;28;20050;-73
2021/12/14 13:44:05;;;;;;;95.13;41.17;;;9.20;99.90;;;;;;5010612;28;20053;-73
2021/12/14 13:46:31;;;;;;;91.05;38.90;;;9.20;99.90;;;;;;5013492;28;20507;-73
2021/12/14 13:48:57;;;;;;;92.10;40.45;;;9.20;99.90;;;;;;5029146;28;20042;-73
2021/12/14 13:51:26;;;;;;;80.22;38.92;;;9.20;99.90;;;;;;5014087;28;20049;-73
2021/12/14 13:53:55;;;;;;;86.47;38.15;;;9.20;99.90;;;;;;5024639;28;20566;-73